Time;durP1;ratioP1;P1;durP2;ratioP2;P2;SDS_P1;SDS_P2;PMS_P1;PMS_P2;Temp;Humidity;BMP_temperature;BMP_pressure;BME280_temperature;BME280_humidity;BME280_pressure;Samples;Min_cycle;Max_cycle;Signal;HPM_P1;HPM_P2
2021/01/03 00:00:59;;;;;;;12.60;6.43;;;4.40;95.60;;;;;;4998325;28;20057;-74
2021/01/03 00:03:26;;;;;;;15.10;7.45;;;4.10;95.70;;;;;;5003590;28;20054;-74
2021/01/03 00:05:53;;;;;;;15.52;7.20;;;4.20;96.00;;;;;;5005245;28;20734;-74
2021/01/03 00:08:20;;;;;;;16.65;7.10;;;4.00;96.10;;;;;;5004478;28;20054;-75
2021/01/03 00:10:46;;;;;;;14.25;7.25;;;3.80;96.30;;;;;;4999147;28;20547;-74
2021/01/03 00:13:13;;;;;;;15.95;7.18;;;4.20;96.50;;;;;;5003244;28;20049;-74
2021/01/03 00:15:39;;;;;;;16.25;7.45;;;4.20;96.40;;;;;;4984493;28;20509;-74
2021/01/03 00:18:06;;;;;;;14.25;7.03;;;3.90;96.20;;;;;;4988123;28;20062;-73
2021/01/03 00:20:33;;;;;;;13.15;6.32;;;4.20;96.20;;;;;;5000112;28;20049;-73
2021/01/03 00:22:59;;;;;;;14.20;7.72;;;4.00;96.10;;;;;;5002247;28;20394;-74
2021/01/03 00:25:28;;;;;;;14.00;6.63;;;4.00;96.20;;;;;;4995730;28;20054;-75
2021/01/03 00:27:55;;;;;;;15.10;7.32;;;3.90;96.30;;;;;;4986730;28;20058;-75
2021/01/03 00:30:24;;;;;;;16.38;7.35;;;3.90;96.40;;;;;;5001946;28;20058;-75
2021/01/03 00:32:52;;;;;;;14.65;7.25;;;3.90;96.30;;;;;;5004265;28;20050;-74
2021/01/03 00:35:25;;;;;;;14.65;7.00;;;3.80;96.50;;;;;;4999164;28;20054;-73
2021/01/03 00:37:51;;;;;;;18.45;7.43;;;3.90;96.50;;;;;;4986217;28;20049;-74
2021/01/03 00:40:21;;;;;;;14.80;6.57;;;3.90;96.70;;;;;;5000307;28;20057;-74
2021/01/03 00:42:47;;;;;;;12.18;6.57;;;3.90;96.60;;;;;;5004141;28;20046;-74
2021/01/03 00:45:14;;;;;;;15.10;6.88;;;4.20;96.50;;;;;;4987011;28;20058;-75
2021/01/03 00:47:41;;;;;;;17.40;7.65;;;3.80;96.40;;;;;;5002759;28;20045;-74
2021/01/03 00:50:09;;;;;;;15.63;7.25;;;3.70;96.50;;;;;;4988235;28;20054;-74
2021/01/03 00:52:36;;;;;;;16.08;6.80;;;3.90;96.60;;;;;;4980464;28;20062;-75
2021/01/03 00:55:04;;;;;;;14.57;6.18;;;3.90;96.40;;;;;;5006102;28;20048;-73
2021/01/03 00:57:31;;;;;;;15.75;7.68;;;3.70;96.30;;;;;;5002010;28;20050;-74
2021/01/03 01:00:38;;;;;;;13.40;6.38;;;3.80;96.50;;;;;;4989715;28;20054;-74
2021/01/03 01:03:05;;;;;;;15.80;7.20;;;3.90;96.40;;;;;;4974822;28;20053;-74
2021/01/03 01:05:32;;;;;;;14.50;7.22;;;3.90;96.40;;;;;;5007852;28;20085;-73
2021/01/03 01:07:59;;;;;;;17.10;7.78;;;3.70;96.50;;;;;;4983143;28;20058;-73
2021/01/03 01:10:30;;;;;;;15.00;7.40;;;4.10;96.50;;;;;;5000372;28;20077;-75
2021/01/03 01:13:00;;;;;;;14.63;7.43;;;3.70;96.40;;;;;;5005569;28;20073;-75
2021/01/03 01:15:29;;;;;;;17.50;7.00;;;4.10;96.50;;;;;;4996998;28;20485;-73
2021/01/03 01:17:57;;;;;;;15.02;6.72;;;3.90;96.30;;;;;;4991188;28;20100;-75
2021/01/03 01:20:26;;;;;;;12.13;6.00;;;3.90;95.90;;;;;;5006500;28;20053;-76
2021/01/03 01:22:52;;;;;;;12.23;6.68;;;4.20;96.20;;;;;;5005397;28;20155;-75
2021/01/03 01:25:22;;;;;;;14.80;6.75;;;3.80;96.00;;;;;;4988828;28;20096;-75
2021/01/03 01:27:49;;;;;;;15.13;6.75;;;3.90;95.90;;;;;;5009370;28;20460;-74
2021/01/03 01:30:17;;;;;;;18.15;6.53;;;3.90;95.90;;;;;;4987034;28;20417;-75
2021/01/03 01:32:44;;;;;;;13.18;6.75;;;3.90;95.60;;;;;;5004325;28;20077;-76
2021/01/03 01:35:13;;;;;;;10.35;5.85;;;3.90;95.60;;;;;;4991407;28;20478;-75
2021/01/03 01:37:40;;;;;;;13.68;6.32;;;4.00;95.40;;;;;;4996770;28;20394;-74
2021/01/03 01:40:09;;;;;;;13.38;6.10;;;3.70;95.50;;;;;;5007197;28;20101;-74
2021/01/03 01:42:35;;;;;;;11.90;5.88;;;3.90;95.60;;;;;;4990420;28;20096;-75
2021/01/03 01:45:07;;;;;;;10.57;5.78;;;4.00;95.70;;;;;;4983402;28;20053;-75
2021/01/03 01:47:37;;;;;;;10.60;5.93;;;3.90;95.20;;;;;;4988068;28;20054;-74
2021/01/03 01:50:08;;;;;;;11.88;5.82;;;4.10;95.20;;;;;;5003540;28;20057;-75
2021/01/03 01:52:42;;;;;;;12.82;5.90;;;3.80;95.20;;;;;;5011758;28;20418;-74
2021/01/03 01:55:16;;;;;;;12.45;6.10;;;3.80;95.10;;;;;;4990709;28;20100;-74
2021/01/03 01:57:52;;;;;;;10.73;5.45;;;3.90;95.00;;;;;;4991066;28;20146;-74
2021/01/03 02:00:20;;;;;;;12.20;6.07;;;4.00;95.10;;;;;;5004081;28;20621;-74
2021/01/03 02:03:48;;;;;;;13.38;5.72;;;4.00;94.80;;;;;;5007120;28;20046;-73
2021/01/03 02:06:16;;;;;;;10.95;5.57;;;4.00;95.00;;;;;;4945519;28;20513;-74
2021/01/03 02:08:46;;;;;;;10.98;5.22;;;4.20;95.20;;;;;;5002925;28;20437;-74
2021/01/03 02:11:20;;;;;;;11.27;5.57;;;4.20;95.00;;;;;;4985794;28;20421;-75
2021/01/03 02:13:51;;;;;;;8.75;5.35;;;4.10;94.70;;;;;;4994666;28;20815;-73
2021/01/03 02:16:21;;;;;;;11.35;5.82;;;3.90;94.50;;;;;;4992901;28;20087;-73
2021/01/03 02:18:50;;;;;;;10.25;5.45;;;4.10;94.90;;;;;;5004595;28;20038;-74
2021/01/03 02:21:35;;;;;;;10.98;6.00;;;3.80;95.00;;;;;;5001713;28;20073;-73
2021/01/03 02:24:23;;;;;;;11.40;6.38;;;3.90;94.70;;;;;;5009857;28;20109;-73
2021/01/03 02:27:26;;;;;;;14.73;6.47;;;3.90;94.80;;;;;;5009553;28;20608;-73
2021/01/03 02:29:55;;;;;;;14.38;6.63;;;4.00;95.10;;;;;;4994647;28;20152;-74
2021/01/03 02:32:22;;;;;;;11.57;5.85;;;4.10;95.10;;;;;;5011081;28;20728;-74
2021/01/03 02:34:50;;;;;;;13.05;6.93;;;3.70;95.10;;;;;;4985799;28;20100;-72
2021/01/03 02:37:34;;;;;;;13.30;6.35;;;3.70;95.40;;;;;;5012927;28;20123;-73
2021/01/03 02:40:11;;;;;;;11.27;6.32;;;4.00;95.40;;;;;;4995620;28;20046;-73
2021/01/03 02:42:39;;;;;;;12.95;6.72;;;3.80;95.40;;;;;;5008185;28;20476;-73
2021/01/03 02:45:18;;;;;;;12.40;6.55;;;3.70;95.80;;;;;;5011768;28;20073;-73
2021/01/03 02:47:46;;;;;;;14.73;7.03;;;4.10;95.80;;;;;;4991848;28;20049;-73
2021/01/03 02:50:24;;;;;;;13.57;6.55;;;3.80;95.70;;;;;;5008461;28;20049;-74
2021/01/03 02:52:52;;;;;;;14.00;6.95;;;3.80;95.60;;;;;;5009320;28;20161;-73
2021/01/03 02:55:19;;;;;;;13.55;7.18;;;3.80;95.80;;;;;;5007896;28;20453;-73
2021/01/03 02:57:46;;;;;;;16.40;7.13;;;3.70;96.00;;;;;;4994279;28;20137;-72
2021/01/03 03:00:37;;;;;;;12.73;6.63;;;3.70;96.10;;;;;;5008341;28;20046;-72
2021/01/03 03:03:05;;;;;;;15.18;6.70;;;3.70;96.10;;;;;;5002000;28;20061;-74
2021/01/03 03:05:31;;;;;;;12.82;7.00;;;3.70;96.10;;;;;;5011454;28;20085;-74
2021/01/03 03:07:58;;;;;;;12.68;6.45;;;3.70;96.00;;;;;;5008305;28;20108;-73
2021/01/03 03:10:24;;;;;;;13.93;6.82;;;3.80;95.80;;;;;;5008766;28;20046;-72
2021/01/03 03:12:56;;;;;;;11.80;6.22;;;3.80;95.80;;;;;;4992955;28;20070;-73
2021/01/03 03:15:24;;;;;;;11.63;5.90;;;3.80;95.30;;;;;;5008647;28;20042;-72
2021/01/03 03:17:51;;;;;;;12.50;6.20;;;3.70;95.20;;;;;;4991880;28;20137;-73
2021/01/03 03:20:18;;;;;;;10.13;5.70;;;3.80;95.30;;;;;;5004238;28;20081;-73
2021/01/03 03:22:45;;;;;;;10.65;5.75;;;3.70;95.30;;;;;;5007805;28;20042;-72
2021/01/03 03:25:12;;;;;;;16.33;6.10;;;3.80;95.30;;;;;;4989967;28;20054;-73
2021/01/03 03:27:39;;;;;;;12.90;5.82;;;3.80;95.50;;;;;;4993496;28;20050;-73
2021/01/03 03:30:09;;;;;;;13.40;6.45;;;3.70;95.20;;;;;;4993538;28;20493;-72
2021/01/03 03:32:36;;;;;;;11.25;6.32;;;3.70;95.40;;;;;;4993752;28;20132;-73
2021/01/03 03:35:04;;;;;;;14.30;6.90;;;3.80;95.60;;;;;;5003048;28;20047;-73
2021/01/03 03:37:31;;;;;;;10.73;5.65;;;3.70;95.60;;;;;;5005007;28;20516;-73
2021/01/03 03:39:57;;;;;;;10.90;5.35;;;3.80;95.40;;;;;;5010127;28;20469;-73
2021/01/03 03:42:23;;;;;;;9.90;5.03;;;3.90;95.20;;;;;;5002948;28;20132;-72
2021/01/03 03:44:50;;;;;;;10.57;5.90;;;3.70;95.20;;;;;;5010739;28;20125;-72
2021/01/03 03:47:16;;;;;;;9.90;5.50;;;3.80;95.50;;;;;;5008008;28;20057;-74
2021/01/03 03:49:42;;;;;;;13.10;6.63;;;3.90;95.40;;;;;;5006694;28;20053;-72
2021/01/03 03:52:09;;;;;;;10.32;5.78;;;3.70;95.60;;;;;;5011126;28;20116;-74
2021/01/03 03:54:35;;;;;;;9.88;5.57;;;3.80;95.50;;;;;;5009161;28;20038;-72
2021/01/03 03:57:04;;;;;;;12.20;5.45;;;3.90;95.60;;;;;;4989394;28;20045;-72
2021/01/03 04:03:09;;;;;;;11.77;5.53;;;3.80;95.50;;;;;;5005388;28;20085;-73
2021/01/03 04:05:35;;;;;;;10.68;5.95;;;3.60;95.50;;;;;;4992257;28;20410;-73
2021/01/03 04:08:01;;;;;;;12.55;6.03;;;3.70;95.40;;;;;;5011082;28;20055;-73
2021/01/03 04:10:30;;;;;;;14.45;6.00;;;3.70;95.50;;;;;;5008045;28;20133;-73
2021/01/03 04:12:56;;;;;;;11.70;6.40;;;3.60;95.70;;;;;;5002472;28;20043;-73
2021/01/03 04:15:28;;;;;;;9.82;5.80;;;3.60;95.70;;;;;;5007122;28;20387;-73
2021/01/03 04:17:55;;;;;;;11.23;6.45;;;3.60;95.80;;;;;;5004588;28;20092;-73
2021/01/03 04:20:21;;;;;;;10.77;6.38;;;3.70;95.90;;;;;;5009511;28;20057;-73
2021/01/03 04:22:50;;;;;;;12.15;6.00;;;3.70;95.70;;;;;;5004018;28;20050;-73
2021/01/03 04:25:16;;;;;;;10.00;6.22;;;3.40;95.70;;;;;;5004358;28;20096;-73
2021/01/03 04:27:44;;;;;;;11.65;6.53;;;3.70;95.80;;;;;;5008565;28;20469;-73
2021/01/03 04:30:12;;;;;;;10.68;6.07;;;3.90;95.80;;;;;;4991093;28;20096;-73
2021/01/03 04:32:39;;;;;;;13.63;6.25;;;3.90;95.60;;;;;;5005145;28;20092;-73
2021/01/03 04:35:08;;;;;;;10.80;6.38;;;3.90;95.60;;;;;;5015072;28;20046;-73
2021/01/03 04:37:35;;;;;;;13.40;6.88;;;3.80;95.70;;;;;;5011220;28;20046;-72
2021/01/03 04:40:02;;;;;;;12.52;6.85;;;3.60;95.80;;;;;;5014256;28;20477;-73
2021/01/03 04:42:32;;;;;;;12.57;6.70;;;3.50;95.90;;;;;;5012552;28;20100;-73
2021/01/03 04:45:12;;;;;;;11.00;6.13;;;3.80;96.10;;;;;;4996821;28;20050;-73
2021/01/03 04:48:04;;;;;;;10.85;6.03;;;3.60;95.90;;;;;;5008665;28;20046;-73
2021/01/03 04:50:51;;;;;;;12.30;6.63;;;3.70;95.90;;;;;;5004720;28;20055;-73
2021/01/03 04:53:37;;;;;;;10.98;6.22;;;3.70;96.00;;;;;;5010273;28;20768;-73
2021/01/03 04:56:15;;;;;;;11.00;6.28;;;3.70;96.00;;;;;;5011233;28;20050;-73
2021/01/03 04:59:05;;;;;;;11.63;6.25;;;3.60;95.80;;;;;;4997772;28;20046;-73
2021/01/03 05:01:34;;;;;;;12.75;6.40;;;3.50;95.90;;;;;;5003815;28;20047;-72
2021/01/03 05:04:25;;;;;;;11.55;6.38;;;3.70;95.70;;;;;;5008245;28;20054;-72
2021/01/03 05:06:54;;;;;;;12.20;6.65;;;3.60;95.90;;;;;;5013019;28;20413;-72
2021/01/03 05:09:21;;;;;;;12.18;6.70;;;3.90;96.20;;;;;;5011544;28;20105;-73
2021/01/03 05:12:02;;;;;;;11.73;7.15;;;3.90;96.30;;;;;;5006102;28;20081;-73
2021/01/03 05:15:10;;;;;;;14.13;7.07;;;3.70;96.10;;;;;;5011526;28;20103;-72
2021/01/03 05:17:36;;;;;;;14.40;6.80;;;3.70;96.40;;;;;;5009876;28;20452;-73
2021/01/03 05:20:05;;;;;;;12.85;6.95;;;3.70;96.50;;;;;;5010874;28;20042;-72
2021/01/03 05:22:33;;;;;;;12.32;7.00;;;3.60;96.80;;;;;;4994950;28;20731;-73
2021/01/03 05:25:03;;;;;;;11.88;6.78;;;3.60;97.00;;;;;;5008758;28;20552;-72
2021/01/03 05:27:30;;;;;;;14.25;6.95;;;3.70;96.80;;;;;;5007276;28;20054;-72
2021/01/03 05:30:27;;;;;;;12.27;6.68;;;3.70;96.70;;;;;;5013156;28;20124;-73
2021/01/03 05:33:02;;;;;;;12.48;7.03;;;3.70;96.70;;;;;;5008297;28;20104;-72
2021/01/03 05:35:46;;;;;;;15.02;7.63;;;3.40;96.90;;;;;;4990370;28;20049;-72
2021/01/03 05:38:32;;;;;;;11.77;7.00;;;3.80;97.20;;;;;;5014363;28;20181;-73
2021/01/03 05:41:10;;;;;;;17.65;7.95;;;3.60;96.70;;;;;;4996899;28;20050;-73
2021/01/03 05:43:36;;;;;;;13.93;7.43;;;3.60;96.70;;;;;;5010735;28;20111;-73
2021/01/03 05:46:08;;;;;;;15.60;7.38;;;3.70;96.60;;;;;;4996896;28;20072;-73
2021/01/03 05:48:39;;;;;;;13.07;7.32;;;3.70;96.60;;;;;;5013162;28;20512;-73
2021/01/03 05:51:10;;;;;;;18.13;8.10;;;3.80;96.60;;;;;;5008892;28;20131;-72
2021/01/03 05:53:37;;;;;;;14.13;7.55;;;3.70;96.50;;;;;;5008391;28;20085;-72
2021/01/03 05:56:12;;;;;;;15.43;7.93;;;3.80;96.50;;;;;;5000324;28;20490;-73
2021/01/03 05:58:44;;;;;;;13.93;7.53;;;3.80;96.20;;;;;;5009883;28;20485;-72
2021/01/03 06:01:15;;;;;;;12.27;6.90;;;3.70;96.40;;;;;;4992350;28;20128;-72
2021/01/03 06:03:41;;;;;;;14.15;7.90;;;3.70;96.60;;;;;;4996638;28;20046;-73
2021/01/03 06:06:17;;;;;;;14.82;7.72;;;3.80;96.40;;;;;;5009017;28;20085;-73
2021/01/03 06:08:46;;;;;;;12.10;7.15;;;3.80;96.30;;;;;;5012861;28;20073;-72
2021/01/03 06:11:21;;;;;;;14.63;7.90;;;3.70;96.30;;;;;;5012949;28;20050;-72
2021/01/03 06:13:53;;;;;;;13.88;8.00;;;3.90;96.80;;;;;;5009260;28;20107;-73
2021/01/03 06:16:27;;;;;;;16.65;8.55;;;3.70;96.70;;;;;;4993528;28;20046;-73
2021/01/03 06:19:05;;;;;;;13.90;7.47;;;3.70;96.90;;;;;;5014205;28;20042;-73
2021/01/03 06:21:36;;;;;;;14.65;7.75;;;3.60;97.30;;;;;;4993787;28;20471;-70
2021/01/03 06:24:19;;;;;;;16.35;7.82;;;3.90;97.80;;;;;;5006496;28;20489;-71
2021/01/03 06:26:51;;;;;;;17.23;8.23;;;3.60;97.90;;;;;;5011906;28;20403;-74
2021/01/03 06:29:32;;;;;;;22.08;9.90;;;3.60;98.10;;;;;;4995426;28;20085;-73
2021/01/03 06:32:20;;;;;;;17.27;8.75;;;3.50;98.30;;;;;;4996595;28;20042;-73
2021/01/03 06:34:53;;;;;;;16.13;8.55;;;3.60;98.40;;;;;;5013463;28;20560;-74
2021/01/03 06:37:34;;;;;;;17.63;8.90;;;3.40;98.80;;;;;;5007145;28;20124;-71
2021/01/03 06:40:00;;;;;;;20.05;9.23;;;3.60;99.10;;;;;;4991907;28;20046;-72
2021/01/03 06:43:00;;;;;;;18.38;9.38;;;3.70;99.20;;;;;;5012710;28;20553;-73
2021/01/03 06:46:03;;;;;;;14.82;8.13;;;3.50;99.40;;;;;;5007275;28;20550;-72
2021/01/03 06:49:00;;;;;;;21.55;9.45;;;3.40;99.80;;;;;;4986840;28;20103;-72
2021/01/03 06:52:04;;;;;;;18.77;8.95;;;3.50;99.90;;;;;;5007193;28;20057;-73
2021/01/03 06:54:57;;;;;;;16.98;9.57;;;3.50;99.90;;;;;;5006536;28;20741;-72
2021/01/03 06:58:03;;;;;;;16.65;8.68;;;3.50;99.90;;;;;;5008359;28;20139;-71
2021/01/03 07:00:46;;;;;;;20.35;9.52;;;3.50;99.90;;;;;;5003962;28;20494;-74
2021/01/03 07:03:15;;;;;;;19.33;9.35;;;3.60;99.90;;;;;;4991859;28;20085;-72
2021/01/03 07:06:04;;;;;;;17.75;8.88;;;3.50;99.90;;;;;;5007372;28;20073;-72
2021/01/03 07:08:41;;;;;;;20.05;9.32;;;3.50;99.90;;;;;;4992916;28;20505;-72
2021/01/03 07:11:39;;;;;;;21.88;10.35;;;3.50;99.90;;;;;;5009948;28;20064;-73
2021/01/03 07:14:23;;;;;;;17.33;9.13;;;3.50;99.90;;;;;;4993549;28;20504;-72
2021/01/03 07:16:58;;;;;;;19.70;10.13;;;3.40;99.90;;;;;;5009591;28;20049;-73
2021/01/03 07:19:35;;;;;;;18.52;9.70;;;3.50;99.90;;;;;;4996856;28;20508;-72
2021/01/03 07:22:03;;;;;;;20.35;9.65;;;3.50;99.90;;;;;;5001302;28;20052;-72
2021/01/03 07:24:37;;;;;;;21.45;10.60;;;3.40;99.90;;;;;;5006570;28;20785;-72
2021/01/03 07:27:22;;;;;;;19.48;10.60;;;3.30;99.90;;;;;;4979405;28;20046;-73
2021/01/03 07:29:55;;;;;;;20.92;10.05;;;3.50;99.90;;;;;;4986999;28;20086;-73
2021/01/03 07:32:46;;;;;;;24.70;10.32;;;3.40;99.90;;;;;;5006731;28;20084;-71
2021/01/03 07:35:18;;;;;;;19.75;10.23;;;3.40;99.90;;;;;;5009124;28;20093;-72
2021/01/03 07:37:45;;;;;;;22.80;10.88;;;3.40;99.90;;;;;;5009996;28;20088;-73
2021/01/03 07:40:16;;;;;;;24.92;10.88;;;3.50;99.90;;;;;;5007871;28;20069;-73
2021/01/03 07:42:45;;;;;;;18.60;10.32;;;3.40;99.90;;;;;;4984907;28;20050;-71
2021/01/03 07:45:12;;;;;;;20.67;11.02;;;3.40;99.90;;;;;;5009618;28;20100;-74
2021/01/03 07:47:44;;;;;;;19.38;10.85;;;3.40;99.90;;;;;;5007686;28;20053;-72
2021/01/03 07:50:34;;;;;;;21.27;11.18;;;3.40;99.90;;;;;;4999580;28;20132;-72
2021/01/03 07:53:36;;;;;;;20.70;9.90;;;3.40;99.90;;;;;;5009809;28;20088;-72
2021/01/03 07:56:29;;;;;;;23.75;11.00;;;3.40;99.90;;;;;;5008468;28;20053;-73
2021/01/03 07:58:57;;;;;;;22.05;10.93;;;3.40;99.90;;;;;;4988722;28;20049;-73
2021/01/03 08:01:29;;;;;;;25.20;11.07;;;3.40;99.90;;;;;;5010615;28;20058;-73
2021/01/03 08:03:55;;;;;;;24.42;10.93;;;3.40;99.90;;;;;;5009172;28;20077;-73
2021/01/03 08:06:22;;;;;;;23.63;11.70;;;3.40;99.90;;;;;;5008478;28;20533;-72
2021/01/03 08:08:55;;;;;;;27.42;12.77;;;3.40;99.90;;;;;;4995974;28;20054;-71
2021/01/03 08:11:28;;;;;;;21.98;11.20;;;3.40;99.90;;;;;;5007345;28;20481;-73
2021/01/03 08:14:01;;;;;;;23.92;12.23;;;3.40;99.90;;;;;;5005562;28;20845;-73
2021/01/03 08:16:29;;;;;;;24.38;11.50;;;3.70;99.90;;;;;;4992591;28;20053;-72
2021/01/03 08:18:58;;;;;;;23.38;10.80;;;3.40;99.90;;;;;;5006297;28;20053;-72
2021/01/03 08:21:25;;;;;;;21.38;11.38;;;3.40;99.90;;;;;;5007223;28;20061;-73
2021/01/03 08:24:22;;;;;;;22.90;11.80;;;3.50;99.90;;;;;;5007341;28;20058;-72
2021/01/03 08:26:53;;;;;;;21.83;10.73;;;3.40;99.90;;;;;;5006949;28;20107;-74
2021/01/03 08:29:23;;;;;;;22.90;11.10;;;3.70;99.90;;;;;;4991123;28;20108;-73
2021/01/03 08:31:52;;;;;;;25.00;12.23;;;3.40;99.90;;;;;;5009041;28;20046;-72
2021/01/03 08:34:34;;;;;;;25.55;12.82;;;3.40;99.90;;;;;;5008464;28;20053;-72
2021/01/03 08:37:31;;;;;;;24.00;12.00;;;3.60;99.90;;;;;;5005011;28;20096;-74
2021/01/03 08:40:09;;;;;;;21.58;11.18;;;3.50;99.90;;;;;;4982247;28;20050;-73
2021/01/03 08:42:42;;;;;;;21.83;11.63;;;3.50;99.90;;;;;;5005977;28;20158;-72
2021/01/03 08:45:17;;;;;;;25.00;12.10;;;3.60;99.90;;;;;;5007686;28;20090;-73
2021/01/03 08:47:44;;;;;;;21.98;11.98;;;3.40;99.90;;;;;;5008870;28;20050;-73
2021/01/03 08:50:26;;;;;;;21.92;11.38;;;3.40;99.90;;;;;;5009402;28;20069;-73
2021/01/03 08:53:01;;;;;;;24.92;12.38;;;3.30;99.90;;;;;;5002191;28;20120;-72
2021/01/03 08:55:32;;;;;;;23.15;10.93;;;3.30;99.90;;;;;;5008843;28;20521;-74
2021/01/03 08:58:02;;;;;;;21.13;11.15;;;3.40;99.90;;;;;;5008080;28;20137;-72
2021/01/03 09:00:35;;;;;;;24.65;10.82;;;3.50;99.90;;;;;;5006060;28;20477;-72
2021/01/03 09:03:05;;;;;;;21.58;11.07;;;3.60;99.90;;;;;;5010719;28;20054;-73
2021/01/03 09:05:35;;;;;;;25.17;11.87;;;3.60;99.90;;;;;;5006555;28;20096;-73
2021/01/03 09:08:03;;;;;;;25.40;12.20;;;3.40;99.90;;;;;;5000126;28;20137;-72
2021/01/03 09:10:34;;;;;;;25.90;11.98;;;3.40;99.90;;;;;;5011761;28;20127;-74
2021/01/03 09:13:25;;;;;;;23.90;12.25;;;3.50;99.90;;;;;;5006151;28;20050;-73
2021/01/03 09:16:08;;;;;;;24.27;11.70;;;3.50;99.90;;;;;;4988463;28;20077;-74
2021/01/03 09:18:55;;;;;;;26.48;12.07;;;3.40;99.90;;;;;;4992206;28;20078;-73
2021/01/03 09:21:22;;;;;;;23.27;11.27;;;3.30;99.90;;;;;;5004761;28;20046;-73
2021/01/03 09:23:56;;;;;;;23.20;12.02;;;3.60;99.90;;;;;;5006828;28;20498;-73
2021/01/03 09:26:30;;;;;;;18.27;10.57;;;3.50;99.90;;;;;;5004186;28;20088;-72
2021/01/03 09:29:06;;;;;;;25.38;12.45;;;3.40;99.90;;;;;;4992739;28;20054;-74
2021/01/03 09:31:34;;;;;;;23.90;12.15;;;3.40;99.90;;;;;;5007590;28;20462;-72
2021/01/03 09:34:14;;;;;;;21.98;11.40;;;3.60;99.90;;;;;;5013022;28;20501;-73
2021/01/03 09:36:46;;;;;;;25.42;12.43;;;3.70;99.90;;;;;;5004240;28;20051;-73
2021/01/03 09:39:20;;;;;;;22.40;10.57;;;3.50;99.90;;;;;;5012112;28;20078;-75
2021/01/03 09:42:22;;;;;;;22.25;11.25;;;3.60;99.90;;;;;;5003827;28;20108;-74
2021/01/03 09:45:03;;;;;;;23.23;11.38;;;3.90;99.90;;;;;;5001373;28;20097;-75
2021/01/03 09:47:41;;;;;;;20.67;10.85;;;3.70;99.90;;;;;;5000394;28;20144;-73
2021/01/03 09:50:31;;;;;;;19.52;10.20;;;3.60;99.90;;;;;;5003064;28;20206;-73
2021/01/03 09:53:20;;;;;;;20.88;10.57;;;3.60;99.90;;;;;;5010763;28;20042;-78
2021/01/03 09:55:55;;;;;;;25.75;11.25;;;3.60;99.90;;;;;;4992876;28;20378;-75
2021/01/03 09:58:32;;;;;;;22.63;10.77;;;3.60;99.90;;;;;;5005362;28;20470;-75
2021/01/03 10:00:59;;;;;;;21.25;11.40;;;3.70;99.90;;;;;;5007247;28;20086;-78
2021/01/03 10:03:35;;;;;;;24.70;11.43;;;3.60;99.90;;;;;;5010011;28;20078;-77
2021/01/03 10:06:31;;;;;;;20.17;10.68;;;3.70;99.90;;;;;;5012865;28;20052;-77
2021/01/03 10:09:11;;;;;;;22.95;11.77;;;3.90;99.90;;;;;;4999844;28;21470;-79
2021/01/03 10:11:38;;;;;;;22.40;12.02;;;3.90;99.90;;;;;;4980697;28;20113;-74
2021/01/03 10:14:09;;;;;;;22.85;11.10;;;3.80;99.90;;;;;;4973833;28;20406;-74
2021/01/03 10:16:38;;;;;;;20.70;10.40;;;3.90;99.90;;;;;;4989744;28;20057;-73
2021/01/03 10:19:20;;;;;;;23.83;10.40;;;4.00;99.90;;;;;;4993788;28;20070;-72
2021/01/03 10:21:47;;;;;;;23.42;10.95;;;3.90;99.90;;;;;;4990031;28;20476;-75
2021/01/03 10:24:29;;;;;;;22.40;11.43;;;3.90;99.90;;;;;;4989680;28;20062;-75
2021/01/03 10:27:09;;;;;;;20.90;10.90;;;4.00;99.90;;;;;;4991175;28;20062;-73
2021/01/03 10:29:35;;;;;;;24.33;11.13;;;4.10;99.90;;;;;;4989392;28;20085;-73
2021/01/03 10:32:03;;;;;;;23.42;11.13;;;4.10;99.90;;;;;;4988734;28;20773;-74
2021/01/03 10:34:30;;;;;;;22.98;10.77;;;4.20;99.90;;;;;;4990941;28;20049;-74
2021/01/03 10:36:57;;;;;;;24.38;11.27;;;4.20;99.90;;;;;;4990548;28;20137;-72
2021/01/03 10:39:25;;;;;;;19.63;10.93;;;4.40;99.90;;;;;;4989358;28;20141;-73
2021/01/03 10:41:51;;;;;;;25.02;10.70;;;4.30;99.90;;;;;;4973804;28;20077;-73
2021/01/03 10:44:18;;;;;;;18.90;10.52;;;4.20;99.90;;;;;;4987258;28;20059;-74
2021/01/03 10:46:47;;;;;;;21.77;10.98;;;4.20;99.90;;;;;;4972151;28;22355;-73
2021/01/03 10:49:14;;;;;;;22.95;11.98;;;4.40;99.90;;;;;;4989208;28;20556;-74
2021/01/03 10:51:43;;;;;;;24.45;11.32;;;4.50;99.90;;;;;;4988991;28;20129;-74
2021/01/03 10:54:13;;;;;;;25.40;11.13;;;4.20;99.90;;;;;;4988003;28;20148;-71
2021/01/03 10:56:39;;;;;;;19.53;11.27;;;4.20;99.90;;;;;;4993525;28;20050;-73
2021/01/03 10:59:07;;;;;;;21.55;10.77;;;4.20;99.90;;;;;;4987884;28;20048;-72
2021/01/03 11:01:38;;;;;;;22.00;11.07;;;4.50;99.90;;;;;;4990939;28;20140;-73
2021/01/03 11:04:04;;;;;;;20.90;10.25;;;4.30;99.90;;;;;;4989403;28;20509;-72
2021/01/03 11:06:42;;;;;;;22.92;11.40;;;4.30;99.90;;;;;;4992533;28;20053;-74
2021/01/03 11:09:23;;;;;;;23.02;11.20;;;4.40;99.90;;;;;;4989476;28;20126;-73
2021/01/03 11:11:51;;;;;;;24.85;11.68;;;4.70;99.90;;;;;;4989899;28;20140;-73
2021/01/03 11:14:18;;;;;;;24.42;11.88;;;4.30;99.90;;;;;;4970346;28;20555;-73
2021/01/03 11:16:45;;;;;;;20.67;10.38;;;4.30;99.90;;;;;;4988887;28;20493;-72
2021/01/03 11:19:16;;;;;;;21.40;10.90;;;4.60;99.90;;;;;;4988662;28;20093;-73
2021/01/03 11:21:43;;;;;;;20.52;10.57;;;4.40;99.90;;;;;;4987780;28;20125;-73
2021/01/03 11:24:11;;;;;;;24.80;10.88;;;4.40;99.90;;;;;;4989183;28;20049;-73
2021/01/03 11:26:42;;;;;;;23.00;11.50;;;4.70;99.90;;;;;;4987202;28;20398;-73
2021/01/03 11:29:10;;;;;;;;;;;4.30;99.90;;;;;;4990015;28;20132;-75
2021/01/03 11:31:40;;;;;;;23.65;10.40;;;4.50;99.90;;;;;;4987084;28;19930;-73
2021/01/03 11:34:08;;;;;;;21.00;10.85;;;4.40;99.90;;;;;;4989505;28;20054;-73
2021/01/03 11:36:35;;;;;;;21.65;10.85;;;4.30;99.90;;;;;;4989170;28;20152;-73
2021/01/03 11:39:07;;;;;;;21.45;10.30;;;4.60;99.90;;;;;;4989117;28;20125;-73
2021/01/03 11:41:34;;;;;;;19.83;10.35;;;4.40;99.90;;;;;;4985705;28;20502;-73
2021/01/03 11:44:01;;;;;;;20.88;10.20;;;4.40;99.90;;;;;;4987680;28;20591;-74
2021/01/03 11:46:27;;;;;;;21.15;11.10;;;4.80;99.90;;;;;;4988664;28;20513;-73
2021/01/03 11:48:53;;;;;;;21.13;10.02;;;4.60;99.90;;;;;;4992411;28;20136;-76
2021/01/03 11:51:19;;;;;;;23.08;10.60;;;4.60;99.90;;;;;;4990251;28;20543;-75
2021/01/03 11:53:46;;;;;;;20.30;10.38;;;4.60;99.90;;;;;;4987233;28;20152;-74
2021/01/03 11:56:21;;;;;;;23.48;11.80;;;4.60;99.90;;;;;;4970813;28;20612;-74
2021/01/03 11:58:48;;;;;;;23.38;11.00;;;4.60;99.90;;;;;;4987655;28;20136;-75
2021/01/03 12:01:18;;;;;;;22.17;11.93;;;4.60;99.90;;;;;;4986862;28;20068;-71
2021/01/03 12:03:48;;;;;;;25.50;11.68;;;4.50;99.90;;;;;;4988769;28;20058;-72
2021/01/03 12:06:23;;;;;;;20.05;11.07;;;4.70;99.90;;;;;;4990374;28;20061;-72
2021/01/03 12:08:54;;;;;;;19.85;10.25;;;4.50;99.90;;;;;;4991193;28;20081;-73
2021/01/03 12:11:25;;;;;;;23.63;11.07;;;4.50;99.90;;;;;;4990846;28;20050;-72
2021/01/03 12:13:55;;;;;;;23.70;11.50;;;4.50;99.90;;;;;;4988891;28;20082;-72
2021/01/03 12:16:24;;;;;;;22.55;10.50;;;4.60;99.90;;;;;;4988380;28;20745;-73
2021/01/03 12:18:53;;;;;;;23.45;11.23;;;4.40;99.90;;;;;;4989654;28;20042;-73
2021/01/03 12:21:27;;;;;;;23.92;12.02;;;4.40;99.90;;;;;;4991250;28;20078;-72
2021/01/03 12:23:53;;;;;;;23.40;11.23;;;4.70;99.90;;;;;;4993957;28;20049;-71
2021/01/03 12:26:21;;;;;;;22.38;11.18;;;4.50;99.90;;;;;;4993318;28;20050;-73
2021/01/03 12:28:47;;;;;;;23.08;10.35;;;4.60;99.90;;;;;;4992825;28;20118;-71
2021/01/03 12:31:15;;;;;;;17.73;10.07;;;4.50;99.90;;;;;;5010543;28;20045;-72
2021/01/03 12:33:42;;;;;;;20.05;10.18;;;4.70;99.90;;;;;;5015340;28;20050;-74
2021/01/03 12:36:09;;;;;;;21.27;11.15;;;4.70;99.90;;;;;;5010308;28;20087;-74
2021/01/03 12:38:36;;;;;;;21.08;11.32;;;4.80;99.90;;;;;;5012587;28;20128;-74
2021/01/03 12:41:02;;;;;;;20.73;10.73;;;4.70;99.90;;;;;;5006711;28;20136;-73
2021/01/03 12:43:29;;;;;;;24.15;11.27;;;4.70;99.90;;;;;;5008866;28;20129;-74
2021/01/03 12:45:55;;;;;;;20.90;10.60;;;4.80;99.90;;;;;;5012417;28;20103;-73
2021/01/03 12:48:21;;;;;;;20.35;10.50;;;4.80;99.90;;;;;;4993604;28;20104;-73
2021/01/03 12:50:48;;;;;;;17.95;10.30;;;4.70;99.90;;;;;;5009067;28;20109;-73
2021/01/03 12:53:14;;;;;;;21.10;10.75;;;4.50;99.90;;;;;;5012176;28;20045;-73
2021/01/03 12:55:40;;;;;;;22.33;10.68;;;4.70;99.90;;;;;;5012880;28;20121;-73
2021/01/03 12:58:06;;;;;;;19.33;10.65;;;4.80;99.90;;;;;;5002406;28;20085;-73
2021/01/03 13:00:33;;;;;;;19.08;10.27;;;4.70;99.90;;;;;;4997914;28;20042;-73
2021/01/03 13:02:59;;;;;;;19.55;9.90;;;4.60;99.90;;;;;;5014530;28;20054;-74
2021/01/03 13:05:26;;;;;;;20.95;10.38;;;4.50;99.90;;;;;;5010957;28;20100;-73
2021/01/03 13:07:52;;;;;;;21.52;9.60;;;4.60;99.90;;;;;;4997457;28;20077;-73
2021/01/03 13:10:19;;;;;;;18.38;10.63;;;4.60;99.90;;;;;;5014935;28;20050;-73
2021/01/03 13:12:45;;;;;;;21.65;10.23;;;4.40;99.90;;;;;;5007196;28;20481;-73
2021/01/03 13:15:12;;;;;;;20.13;10.20;;;4.30;99.90;;;;;;5015699;28;20054;-73